Time;durP1;ratioP1;P1;durP2;ratioP2;P2;SDS_P1;SDS_P2;PMS_P1;PMS_P2;Temp;Humidity;BMP_temperature;BMP_pressure;BME280_temperature;BME280_humidity;BME280_pressure;Samples;Min_cycle;Max_cycle;Signal;HPM_P1;HPM_P2
2021/04/30 00:00:56;;;;;;;27.08;14.35;;;7.90;99.90;;;;;;4983393;28;20454;-38
2021/04/30 00:03:22;;;;;;;30.75;14.80;;;7.80;99.90;;;;;;4975774;28;20034;-38
2021/04/30 00:05:48;;;;;;;27.55;14.70;;;7.80;99.90;;;;;;4983765;28;20046;-37
2021/04/30 00:08:14;;;;;;;31.23;14.25;;;7.90;99.90;;;;;;4974548;28;20030;-40
2021/04/30 00:10:40;;;;;;;25.75;13.65;;;7.80;99.90;;;;;;4985373;28;20096;-38
2021/04/30 00:13:07;;;;;;;27.38;13.98;;;7.90;99.90;;;;;;4973643;28;20129;-38
2021/04/30 00:15:33;;;;;;;22.63;12.68;;;7.90;99.90;;;;;;4984138;28;20034;-39
2021/04/30 00:18:04;;;;;;;23.02;13.02;;;7.90;99.90;;;;;;4978201;28;20034;-39
2021/04/30 00:20:30;;;;;;;22.48;12.10;;;7.90;99.90;;;;;;4966232;28;20550;-39
2021/04/30 00:22:59;;;;;;;28.70;12.95;;;8.00;99.90;;;;;;4978077;28;20140;-40
2021/04/30 00:25:24;;;;;;;21.35;12.13;;;8.00;99.90;;;;;;4966460;28;20030;-38
2021/04/30 00:27:50;;;;;;;19.77;11.00;;;8.00;99.90;;;;;;4969606;28;20336;-39
2021/04/30 00:30:16;;;;;;;20.80;11.25;;;8.10;99.90;;;;;;4983349;28;20030;-39
2021/04/30 00:32:41;;;;;;;22.30;12.40;;;8.10;99.90;;;;;;4977867;28;20069;-36
2021/04/30 00:35:07;;;;;;;23.35;11.35;;;8.10;99.90;;;;;;4980682;28;20509;-39
2021/04/30 00:37:33;;;;;;;21.00;11.02;;;8.10;99.90;;;;;;4979879;28;20026;-37
2021/04/30 00:39:59;;;;;;;17.60;10.32;;;8.10;99.90;;;;;;4978309;28;20022;-39
2021/04/30 00:42:24;;;;;;;20.73;10.73;;;8.20;99.90;;;;;;4982899;28;20101;-38
2021/04/30 00:44:50;;;;;;;19.50;11.63;;;8.20;99.90;;;;;;4974279;28;20034;-38
2021/04/30 00:47:30;;;;;;;18.63;11.30;;;8.20;99.90;;;;;;4984312;28;20145;-38
2021/04/30 00:49:56;;;;;;;18.20;10.20;;;8.20;99.90;;;;;;4974542;28;20077;-36
2021/04/30 00:52:22;;;;;;;17.27;9.68;;;8.20;99.90;;;;;;4983074;28;20065;-39
2021/04/30 00:54:47;;;;;;;17.27;10.15;;;8.20;99.90;;;;;;4976674;28;20046;-37
2021/04/30 00:57:14;;;;;;;16.00;10.48;;;8.20;99.90;;;;;;4965730;28;20046;-38
2021/04/30 00:59:40;;;;;;;16.70;10.32;;;8.30;99.90;;;;;;4977467;28;20033;-40
2021/04/30 01:02:06;;;;;;;17.27;10.43;;;8.30;99.90;;;;;;4965943;28;20178;-38
2021/04/30 01:04:31;;;;;;;19.58;9.82;;;8.30;99.90;;;;;;4977254;28;20109;-39
2021/04/30 01:06:57;;;;;;;19.33;10.45;;;8.30;99.90;;;;;;4965611;28;20027;-38
2021/04/30 01:09:23;;;;;;;17.52;10.35;;;8.30;99.90;;;;;;4977876;28;20030;-36
2021/04/30 01:11:50;;;;;;;16.92;9.35;;;8.30;99.90;;;;;;4969030;28;20070;-37
2021/04/30 01:14:17;;;;;;;17.20;9.90;;;8.30;99.90;;;;;;4978502;28;20149;-40
2021/04/30 01:16:42;;;;;;;22.45;11.10;;;8.30;99.90;;;;;;4982221;28;20112;-39
2021/04/30 01:19:08;;;;;;;20.63;10.63;;;8.30;99.90;;;;;;4981676;28;20507;-34
2021/04/30 01:21:34;;;;;;;14.10;9.45;;;8.30;99.90;;;;;;4983041;28;20786;-37
2021/04/30 01:23:59;;;;;;;18.90;10.82;;;8.30;99.90;;;;;;4984959;28;20030;-38
2021/04/30 01:26:25;;;;;;;17.88;10.50;;;8.30;99.90;;;;;;4980502;28;20065;-39
2021/04/30 01:28:50;;;;;;;21.38;10.68;;;8.30;99.90;;;;;;4986691;28;20053;-36
2021/04/30 01:31:17;;;;;;;18.38;10.63;;;8.30;99.90;;;;;;4978703;28;20191;-39
2021/04/30 01:33:43;;;;;;;18.42;10.32;;;8.40;99.90;;;;;;4986790;28;20101;-39
2021/04/30 01:36:09;;;;;;;18.80;11.13;;;8.40;99.90;;;;;;4977560;28;20054;-38
2021/04/30 02:02:48;;;;;;;17.60;11.02;;;8.20;99.90;;;;;;4985772;28;20176;-38
2021/04/30 02:05:13;;;;;;;16.33;10.55;;;8.30;99.90;;;;;;4971724;28;20106;-38
2021/04/30 02:07:40;;;;;;;22.73;10.85;;;8.20;99.90;;;;;;4976585;28;20133;-36
2021/04/30 02:10:10;;;;;;;21.50;11.18;;;8.30;99.90;;;;;;4968506;28;20057;-38
2021/04/30 02:12:35;;;;;;;19.15;11.30;;;8.30;99.90;;;;;;4978197;28;20490;-38
2021/04/30 02:15:01;;;;;;;21.02;10.75;;;8.30;99.90;;;;;;4968508;28;20130;-39
2021/04/30 02:17:30;;;;;;;20.10;10.98;;;8.30;99.90;;;;;;4978809;28;20130;-39
2021/04/30 02:19:56;;;;;;;17.77;11.63;;;8.30;99.90;;;;;;4967459;28;20027;-37
2021/04/30 02:22:22;;;;;;;14.95;10.45;;;8.40;99.90;;;;;;4977943;28;20121;-36
2021/04/30 02:24:48;;;;;;;25.83;11.85;;;8.40;99.90;;;;;;4967745;28;20471;-39
2021/04/30 02:27:14;;;;;;;18.08;11.20;;;8.40;99.90;;;;;;4979710;28;20065;-37
2021/04/30 02:29:39;;;;;;;15.02;10.65;;;8.40;99.90;;;;;;4967111;28;20035;-35
2021/04/30 02:32:05;;;;;;;17.85;10.40;;;8.40;99.90;;;;;;4978442;28;20125;-38
2021/04/30 02:34:30;;;;;;;21.13;10.27;;;8.50;99.90;;;;;;4968153;28;20069;-37
2021/04/30 02:36:56;;;;;;;17.60;11.10;;;8.50;99.90;;;;;;4975010;28;20121;-36
2021/04/30 02:39:23;;;;;;;18.70;10.38;;;8.50;99.90;;;;;;4971399;28;20114;-37
2021/04/30 02:41:49;;;;;;;19.30;11.30;;;8.50;99.90;;;;;;4972870;28;20157;-37
2021/04/30 02:44:15;;;;;;;19.60;11.05;;;8.50;99.90;;;;;;4973305;28;20073;-36
2021/04/30 02:46:40;;;;;;;20.63;11.75;;;8.50;99.90;;;;;;4970531;28;20042;-38
2021/04/30 02:49:06;;;;;;;17.35;10.90;;;8.50;99.90;;;;;;4975873;28;20458;-39
2021/04/30 02:51:33;;;;;;;21.17;11.43;;;8.50;99.90;;;;;;4967695;28;20039;-37
2021/04/30 02:53:58;;;;;;;20.17;11.38;;;8.50;99.90;;;;;;4977629;28;20026;-37
2021/04/30 02:56:24;;;;;;;17.38;10.60;;;8.50;99.90;;;;;;4968449;28;20031;-38
2021/04/30 02:58:53;;;;;;;22.55;10.70;;;8.50;99.90;;;;;;4977352;28;20048;-37
2021/04/30 03:01:19;;;;;;;22.08;11.27;;;8.50;99.90;;;;;;4967045;28;20030;-36
2021/04/30 03:03:45;;;;;;;17.90;11.15;;;8.50;99.90;;;;;;4975174;28;20398;-37
2021/04/30 03:06:10;;;;;;;24.27;12.65;;;8.50;99.90;;;;;;4966995;28;20398;-38
2021/04/30 03:08:36;;;;;;;21.30;11.45;;;8.50;99.90;;;;;;4978405;28;20026;-38
2021/04/30 03:11:01;;;;;;;21.15;12.25;;;8.40;99.90;;;;;;4965972;28;20042;-37
2021/04/30 03:13:27;;;;;;;20.35;12.52;;;8.40;99.90;;;;;;4975488;28;20062;-38
2021/04/30 03:15:58;;;;;;;20.10;12.20;;;8.40;99.90;;;;;;4984660;28;20044;-34
2021/04/30 03:18:24;;;;;;;20.02;11.52;;;8.40;99.90;;;;;;4976922;28;20023;-38
2021/04/30 03:20:49;;;;;;;22.83;11.75;;;8.40;99.90;;;;;;4982336;28;20385;-38
2021/04/30 03:23:20;;;;;;;22.98;11.90;;;8.40;99.90;;;;;;4979655;28;20113;-39
2021/04/30 03:25:46;;;;;;;22.52;12.27;;;8.40;99.90;;;;;;4980012;28;20045;-39
2021/04/30 03:28:11;;;;;;;15.45;10.75;;;8.40;99.90;;;;;;4981431;28;20106;-38
2021/04/30 03:30:37;;;;;;;21.63;11.23;;;8.40;99.90;;;;;;4978226;28;20460;-36
2021/04/30 03:33:02;;;;;;;19.25;11.02;;;8.40;99.90;;;;;;4982715;28;20022;-38
2021/04/30 03:35:28;;;;;;;20.60;11.05;;;8.40;99.90;;;;;;4975141;28;20034;-36
2021/04/30 03:37:54;;;;;;;15.75;10.75;;;8.50;99.90;;;;;;4983943;28;20030;-39
2021/04/30 03:40:19;;;;;;;30.85;14.95;;;8.50;99.90;;;;;;4974651;28;20030;-38
2021/04/30 03:42:45;;;;;;;29.70;15.43;;;8.40;99.90;;;;;;4984965;28;20034;-37
2021/04/30 03:45:11;;;;;;;28.83;15.82;;;8.30;99.90;;;;;;4973806;28;20027;-37
2021/04/30 03:47:37;;;;;;;26.55;14.98;;;8.30;99.90;;;;;;4985084;28;20084;-37
2021/04/30 03:50:03;;;;;;;21.55;13.48;;;8.30;99.90;;;;;;4972968;28;20491;-39
2021/04/30 03:52:29;;;;;;;20.27;11.80;;;8.30;99.90;;;;;;4984992;28;20042;-39
2021/04/30 03:54:54;;;;;;;22.02;12.20;;;8.30;99.90;;;;;;4974548;28;20034;-36
2021/04/30 03:57:19;;;;;;;20.00;12.00;;;8.20;99.90;;;;;;4984973;28;20068;-38
2021/04/30 03:59:45;;;;;;;21.48;12.00;;;8.30;99.90;;;;;;4975560;28;20427;-36
2021/04/30 04:02:10;;;;;;;19.38;11.40;;;8.30;99.90;;;;;;4981843;28;20041;-38
2021/04/30 04:04:36;;;;;;;24.92;11.70;;;8.30;99.90;;;;;;4978179;28;20031;-38
2021/04/30 04:07:02;;;;;;;20.40;12.02;;;8.30;99.90;;;;;;4971543;28;20065;-37
2021/04/30 04:09:30;;;;;;;22.02;11.73;;;8.30;99.90;;;;;;4969662;28;20142;-32
2021/04/30 04:11:55;;;;;;;20.17;11.80;;;8.40;99.90;;;;;;4974152;28;20101;-36
2021/04/30 04:14:21;;;;;;;21.45;12.18;;;8.40;99.90;;;;;;4966361;28;20046;-37
2021/04/30 04:16:46;;;;;;;21.80;11.15;;;8.40;99.90;;;;;;4974191;28;20113;-37
2021/04/30 04:19:14;;;;;;;17.58;11.07;;;8.40;99.90;;;;;;4984035;28;20043;-39
2021/04/30 04:21:40;;;;;;;18.77;11.38;;;8.40;99.90;;;;;;4976384;28;20030;-38
2021/04/30 04:24:06;;;;;;;22.50;12.07;;;8.40;99.90;;;;;;4965813;28;20090;-39
2021/04/30 04:26:31;;;;;;;19.65;11.07;;;8.40;99.90;;;;;;4973993;28;20429;-37
2021/04/30 04:28:57;;;;;;;20.40;11.93;;;8.50;99.90;;;;;;4984664;28;20018;-39
2021/04/30 04:31:22;;;;;;;24.20;11.23;;;8.50;99.90;;;;;;4972495;28;20422;-38
2021/04/30 04:33:48;;;;;;;18.27;11.18;;;8.50;99.90;;;;;;4984713;28;20037;-39
2021/04/30 04:36:13;;;;;;;20.85;10.98;;;8.60;99.90;;;;;;4973980;28;20058;-35
2021/04/30 04:38:39;;;;;;;18.40;11.05;;;8.60;99.90;;;;;;4983050;28;20030;-38
2021/04/30 04:41:04;;;;;;;20.27;10.75;;;8.60;99.90;;;;;;4976826;28;20489;-39
2021/04/30 04:43:30;;;;;;;18.05;10.95;;;8.60;99.90;;;;;;4980489;28;20077;-38
2021/04/30 04:45:55;;;;;;;23.58;11.80;;;8.60;99.90;;;;;;4982811;28;20062;-38
2021/04/30 04:48:21;;;;;;;26.58;12.82;;;8.60;99.90;;;;;;4982759;28;20036;-41
2021/04/30 04:50:46;;;;;;;25.90;12.50;;;8.60;99.90;;;;;;4984782;28;20393;-39
2021/04/30 04:53:12;;;;;;;26.58;12.02;;;8.70;99.90;;;;;;4980025;28;20030;-37
2021/04/30 04:55:37;;;;;;;21.33;11.80;;;8.70;99.90;;;;;;4987617;28;20028;-37
2021/04/30 04:58:03;;;;;;;23.35;11.82;;;8.80;99.90;;;;;;4977318;28;20025;-39
2021/04/30 05:00:28;;;;;;;31.55;14.00;;;8.80;99.90;;;;;;4987114;28;20061;-38
2021/04/30 05:02:54;;;;;;;21.95;11.73;;;8.80;99.90;;;;;;4976857;28;20018;-33
2021/04/30 05:05:19;;;;;;;21.27;12.57;;;8.80;99.90;;;;;;4970819;28;20023;-37
2021/04/30 05:07:45;;;;;;;22.10;12.48;;;8.90;99.90;;;;;;4981180;28;20034;-37
2021/04/30 05:10:11;;;;;;;24.35;13.23;;;8.90;99.90;;;;;;4968665;28;20101;-35
2021/04/30 05:12:37;;;;;;;23.83;13.32;;;8.90;99.90;;;;;;4981129;28;20604;-38
2021/04/30 05:15:03;;;;;;;23.33;12.82;;;8.90;99.90;;;;;;4968810;28;20035;-38
2021/04/30 05:17:28;;;;;;;25.35;13.32;;;8.90;99.90;;;;;;4977915;28;20485;-39
2021/04/30 05:19:54;;;;;;;29.35;13.85;;;8.90;99.90;;;;;;4971726;28;20030;-35
2021/04/30 05:22:19;;;;;;;24.73;13.63;;;8.90;99.90;;;;;;4975469;28;20038;-39
2021/04/30 05:24:46;;;;;;;25.73;14.23;;;8.90;99.90;;;;;;4973139;28;20414;-39
2021/04/30 05:27:12;;;;;;;25.05;13.98;;;8.90;99.90;;;;;;4972962;28;20034;-38
2021/04/30 05:29:44;;;;;;;26.40;13.00;;;8.90;99.90;;;;;;4975926;28;20026;-38
2021/04/30 05:32:10;;;;;;;30.33;14.68;;;9.00;99.90;;;;;;4970659;28;20050;-39
2021/04/30 05:34:37;;;;;;;22.90;13.90;;;9.00;99.90;;;;;;4977791;28;20070;-40
2021/04/30 05:37:03;;;;;;;32.97;15.07;;;9.00;99.90;;;;;;4969979;28;20028;-38
2021/04/30 05:39:29;;;;;;;28.45;14.43;;;9.00;99.90;;;;;;4979420;28;20026;-36
2021/04/30 05:41:55;;;;;;;24.70;14.27;;;9.00;99.90;;;;;;4969868;28;20034;-38
2021/04/30 05:44:21;;;;;;;24.33;13.25;;;9.00;99.90;;;;;;4979843;28;20027;-38
2021/04/30 05:46:47;;;;;;;23.25;13.80;;;9.10;99.90;;;;;;4967916;28;20031;-38
2021/04/30 05:49:13;;;;;;;27.80;13.98;;;9.10;99.90;;;;;;4975998;28;20425;-37
2021/04/30 05:51:38;;;;;;;23.58;14.35;;;9.10;99.90;;;;;;4987505;28;20042;-39
2021/04/30 05:54:04;;;;;;;22.02;13.05;;;9.20;99.90;;;;;;4975010;28;20913;-37
2021/04/30 05:56:30;;;;;;;27.13;14.00;;;9.20;99.90;;;;;;4987590;28;20493;-40
2021/04/30 05:58:56;;;;;;;20.83;13.27;;;9.20;99.90;;;;;;4977169;28;20535;-38
2021/04/30 06:01:22;;;;;;;29.20;14.80;;;9.20;99.90;;;;;;4985989;28;20037;-37
2021/04/30 06:03:48;;;;;;;23.60;14.45;;;9.20;99.90;;;;;;4984359;28;20027;-39
2021/04/30 06:06:13;;;;;;;25.05;14.05;;;9.20;99.90;;;;;;4987723;28;20543;-38
2021/04/30 06:08:39;;;;;;;25.35;13.75;;;9.30;99.90;;;;;;4980997;28;20129;-39
2021/04/30 06:11:04;;;;;;;24.17;14.20;;;9.30;99.90;;;;;;4974655;28;20498;-39
2021/04/30 06:13:30;;;;;;;23.13;14.63;;;9.20;99.90;;;;;;4969819;28;20041;-41
2021/04/30 06:15:56;;;;;;;22.73;14.68;;;9.20;99.90;;;;;;4976607;28;20030;-39
2021/04/30 06:18:22;;;;;;;23.05;15.43;;;9.30;99.90;;;;;;4971436;28;20026;-39
2021/04/30 06:20:47;;;;;;;24.73;15.70;;;9.30;99.90;;;;;;4975362;28;20022;-39
2021/04/30 06:23:13;;;;;;;21.48;14.75;;;9.30;99.90;;;;;;4969244;28;20058;-36
2021/04/30 06:25:38;;;;;;;23.00;15.48;;;9.40;99.90;;;;;;4975732;28;20715;-38
2021/04/30 06:28:04;;;;;;;28.65;15.82;;;9.40;99.90;;;;;;4986869;28;20034;-38
2021/04/30 06:30:29;;;;;;;28.73;15.45;;;9.40;99.90;;;;;;4977982;28;20030;-37
2021/04/30 06:32:55;;;;;;;20.30;14.02;;;9.40;99.90;;;;;;4986764;28;20088;-39
2021/04/30 06:35:21;;;;;;;23.95;14.35;;;9.40;99.90;;;;;;4974034;28;20455;-40
2021/04/30 06:37:47;;;;;;;23.27;15.43;;;9.40;99.90;;;;;;4985593;28;20042;-39
2021/04/30 06:40:12;;;;;;;20.35;14.55;;;9.40;99.90;;;;;;4983023;28;20105;-37
2021/04/30 06:42:39;;;;;;;21.15;14.10;;;9.50;99.90;;;;;;4969705;28;20034;-37
2021/04/30 06:45:08;;;;;;;22.38;15.05;;;9.50;99.90;;;;;;4976591;28;20101;-39
2021/04/30 06:47:34;;;;;;;21.23;14.75;;;9.60;99.90;;;;;;4972750;28;20041;-38
2021/04/30 06:50:00;;;;;;;23.38;14.43;;;9.60;99.90;;;;;;4970782;28;20371;-39
2021/04/30 06:52:26;;;;;;;20.77;13.77;;;9.70;99.90;;;;;;4977865;28;20046;-37
2021/04/30 06:54:51;;;;;;;18.13;12.85;;;9.70;99.90;;;;;;4983597;28;20048;-34
2021/04/30 06:57:17;;;;;;;23.42;12.90;;;9.70;99.90;;;;;;4977281;28;20149;-37
2021/04/30 06:59:57;;;;;;;22.52;13.13;;;9.70;99.90;;;;;;4985512;28;20019;-36
2021/04/30 07:02:23;;;;;;;22.38;13.98;;;9.80;99.90;;;;;;4975958;28;20173;-38
2021/04/30 07:04:49;;;;;;;22.42;13.60;;;9.80;99.90;;;;;;4968109;28;20105;-37
2021/04/30 07:07:15;;;;;;;22.42;13.80;;;9.90;99.90;;;;;;4977688;28;20042;-37
2021/04/30 07:09:43;;;;;;;20.27;13.27;;;9.90;99.90;;;;;;4967193;28;20027;-38
2021/04/30 07:12:09;;;;;;;24.60;13.57;;;10.00;99.90;;;;;;4978379;28;20049;-37
2021/04/30 07:14:35;;;;;;;20.63;12.82;;;10.10;99.90;;;;;;4967448;28;20035;-39
2021/04/30 07:17:01;;;;;;;22.92;13.90;;;10.20;99.90;;;;;;4978729;28;20512;-38
2021/04/30 07:19:27;;;;;;;21.77;13.77;;;10.20;99.90;;;;;;4980771;28;20509;-38
2021/04/30 07:21:54;;;;;;;27.90;13.15;;;10.30;99.90;;;;;;4974452;28;20090;-36
2021/04/30 07:24:19;;;;;;;21.98;13.75;;;10.30;99.90;;;;;;4986073;28;20026;-38
2021/04/30 07:26:45;;;;;;;24.63;13.65;;;10.30;99.90;;;;;;4979663;28;20540;-38
2021/04/30 07:29:11;;;;;;;26.08;14.88;;;10.30;99.90;;;;;;4980854;28;20062;-38
2021/04/30 07:31:37;;;;;;;23.63;14.27;;;10.40;99.90;;;;;;4978991;28;20114;-39
2021/04/30 07:34:03;;;;;;;20.85;13.15;;;10.40;99.90;;;;;;4980852;28;20045;-40
2021/04/30 07:36:28;;;;;;;24.23;14.82;;;10.50;99.90;;;;;;4981822;28;20030;-38
2021/04/30 07:38:54;;;;;;;25.20;13.77;;;10.50;99.90;;;;;;4977939;28;20128;-37
2021/04/30 07:41:21;;;;;;;27.05;15.73;;;10.60;99.90;;;;;;4984147;28;20022;-38
2021/04/30 07:43:46;;;;;;;27.77;16.13;;;10.60;99.90;;;;;;4975683;28;20018;-37
2021/04/30 07:46:12;;;;;;;21.67;14.43;;;10.60;99.70;;;;;;4984291;28;20023;-39
2021/04/30 07:48:38;;;;;;;25.05;14.98;;;10.70;99.80;;;;;;4975378;28;20080;-38
2021/04/30 07:51:04;;;;;;;20.55;15.27;;;10.70;99.70;;;;;;4985283;28;20069;-37
2021/04/30 07:53:32;;;;;;;23.75;15.50;;;10.70;99.60;;;;;;4973550;28;20054;-36
2021/04/30 07:55:57;;;;;;;24.42;16.23;;;10.60;99.60;;;;;;4985335;28;20345;-39
2021/04/30 07:58:25;;;;;;;28.23;17.58;;;10.60;99.60;;;;;;4981490;28;20821;-39
2021/04/30 08:00:53;;;;;;;25.08;16.90;;;10.60;99.70;;;;;;4985678;28;20030;-38
2021/04/30 08:03:20;;;;;;;20.63;16.00;;;10.60;99.70;;;;;;4973765;28;20034;-35
2021/04/30 08:05:45;;;;;;;24.77;16.42;;;10.70;99.70;;;;;;4985176;28;20049;-37
2021/04/30 08:08:11;;;;;;;21.88;16.30;;;10.80;99.60;;;;;;4981605;28;20038;-36
2021/04/30 08:10:36;;;;;;;22.42;16.33;;;10.90;99.60;;;;;;4968596;28;20034;-36
2021/04/30 08:13:02;;;;;;;22.15;16.73;;;11.00;99.50;;;;;;4972776;28;20038;-36
2021/04/30 08:15:27;;;;;;;24.95;17.33;;;11.10;99.40;;;;;;4971339;28;20035;-37
2021/04/30 08:17:53;;;;;;;23.85;17.77;;;11.20;99.30;;;;;;4970198;28;20441;-39
2021/04/30 08:20:18;;;;;;;21.55;16.80;;;11.30;99.10;;;;;;4973665;28;20578;-39
2021/04/30 08:22:44;;;;;;;22.63;18.10;;;11.40;99.10;;;;;;4968197;28;20121;-37
2021/04/30 08:25:10;;;;;;;23.58;18.05;;;11.50;99.00;;;;;;4976052;28;20115;-38
2021/04/30 08:27:36;;;;;;;24.05;17.67;;;11.60;99.20;;;;;;4967188;28;20050;-39
2021/04/30 08:30:04;;;;;;;24.00;17.83;;;11.80;98.70;;;;;;4976798;28;20019;-39
2021/04/30 08:32:30;;;;;;;23.95;17.45;;;11.90;98.60;;;;;;4966958;28;20066;-39
2021/04/30 08:34:55;;;;;;;23.10;18.17;;;11.90;98.40;;;;;;4976956;28;20066;-38
2021/04/30 08:37:21;;;;;;;23.00;17.65;;;12.00;98.20;;;;;;4969257;28;20034;-37
2021/04/30 08:39:46;;;;;;;24.23;17.88;;;12.00;98.20;;;;;;4981677;28;20106;-36
2021/04/30 08:42:15;;;;;;;22.42;18.25;;;12.00;98.00;;;;;;4982557;28;20014;-39
2021/04/30 08:44:40;;;;;;;22.55;17.75;;;12.10;97.80;;;;;;4980214;28;20113;-37
2021/04/30 08:47:07;;;;;;;21.02;16.92;;;12.10;97.90;;;;;;4985037;28;20545;-37
2021/04/30 08:49:33;;;;;;;23.10;17.27;;;12.10;98.00;;;;;;4977360;28;20061;-38
2021/04/30 08:51:59;;;;;;;24.27;18.05;;;12.20;97.90;;;;;;4982321;28;20126;-38
2021/04/30 08:54:25;;;;;;;21.48;16.17;;;12.20;97.90;;;;;;4979918;28;20120;-38
2021/04/30 08:56:57;;;;;;;22.83;17.55;;;12.30;97.80;;;;;;4981480;28;20030;-35
2021/04/30 08:59:25;;;;;;;20.58;16.25;;;12.40;97.70;;;;;;4980068;28;20046;-38
2021/04/30 09:01:51;;;;;;;23.08;17.92;;;12.30;97.50;;;;;;4978596;28;20113;-34
2021/04/30 09:04:16;;;;;;;23.08;17.73;;;12.30;97.60;;;;;;4981470;28;20113;-34
2021/04/30 09:06:42;;;;;;;20.83;16.95;;;12.30;97.70;;;;;;4977186;28;20382;-39
2021/04/30 09:09:16;;;;;;;21.17;15.85;;;12.20;97.60;;;;;;4983401;28;20034;-37
2021/04/30 09:11:48;;;;;;;19.75;16.05;;;12.30;97.70;;;;;;4985130;28;20121;-39
2021/04/30 09:14:32;;;;;;;18.92;16.85;;;12.50;97.60;;;;;;4982125;28;20049;-38
2021/04/30 09:17:13;;;;;;;19.40;15.93;;;12.70;97.30;;;;;;4968286;28;20030;-36
2021/04/30 09:19:47;;;;;;;16.73;13.38;;;12.80;97.20;;;;;;4980765;28;20062;-39
2021/04/30 09:22:18;;;;;;;20.33;14.90;;;12.80;97.00;;;;;;4976681;28;20027;-38
2021/04/30 09:24:50;;;;;;;16.98;13.25;;;12.80;96.60;;;;;;4983134;28;20109;-38
2021/04/30 09:28:06;;;;;;;22.45;17.10;;;12.80;96.80;;;;;;4975503;28;20392;-39
2021/04/30 09:30:32;;;;;;;20.48;17.15;;;12.80;96.80;;;;;;4936132;28;20042;-39
2021/04/30 09:33:16;;;;;;;22.17;18.70;;;12.80;96.70;;;;;;4943438;29;20432;-37
2021/04/30 09:35:49;;;;;;;23.45;17.98;;;12.80;96.60;;;;;;4966002;28;20046;-36
2021/04/30 09:38:34;;;;;;;25.60;17.92;;;12.80;96.60;;;;;;4973221;28;20041;-39
2021/04/30 09:41:13;;;;;;;19.80;16.02;;;12.80;96.70;;;;;;4983476;28;20367;-39
2021/04/30 09:43:42;;;;;;;21.05;16.85;;;12.80;96.60;;;;;;4971722;28;20023;-36
2021/04/30 09:46:26;;;;;;;22.92;17.42;;;12.80;96.50;;;;;;4972113;28;20045;-38
2021/04/30 09:49:15;;;;;;;24.65;17.80;;;12.70;96.60;;;;;;4982161;28;20393;-39
2021/04/30 09:51:52;;;;;;;18.98;16.00;;;12.60;96.60;;;;;;4972899;28;20039;-35
2021/04/30 09:54:27;;;;;;;24.27;18.23;;;12.70;96.60;;;;;;4972548;28;20573;-37
2021/04/30 09:57:06;;;;;;;23.67;19.50;;;12.60;96.30;;;;;;4978980;28;20045;-37
2021/04/30 09:59:33;;;;;;;20.90;16.23;;;12.60;96.30;;;;;;4966016;28;20039;-38
2021/04/30 10:02:18;;;;;;;20.35;17.13;;;12.60;96.30;;;;;;4956715;28;20034;-39
2021/04/30 10:04:49;;;;;;;18.17;15.48;;;12.70;96.20;;;;;;4976764;28;20026;-39
2021/04/30 10:07:24;;;;;;;21.10;17.25;;;12.60;96.10;;;;;;4971698;28;20031;-39
2021/04/30 10:10:16;;;;;;;21.73;17.23;;;12.50;96.30;;;;;;4987266;28;20120;-38
2021/04/30 10:12:43;;;;;;;22.10;16.95;;;12.40;96.40;;;;;;4974291;28;20057;-37
2021/04/30 10:15:12;;;;;;;22.48;18.27;;;12.40;96.40;;;;;;4987531;28;20030;-39
2021/04/30 10:17:38;;;;;;;24.05;18.50;;;12.30;96.50;;;;;;4976241;28;20023;-37
2021/04/30 10:20:06;;;;;;;26.15;18.35;;;12.30;96.60;;;;;;4972234;28;20042;-38
2021/04/30 10:22:35;;;;;;;24.45;19.08;;;12.20;96.70;;;;;;4971900;28;20023;-35
2021/04/30 10:25:03;;;;;;;21.50;18.27;;;12.20;96.70;;;;;;4967957;28;20164;-38
2021/04/30 10:27:34;;;;;;;22.58;18.98;;;12.10;96.80;;;;;;4974541;28;20034;-37
2021/04/30 10:30:14;;;;;;;22.63;18.90;;;12.10;96.90;;;;;;4972056;28;20782;-37
2021/04/30 10:32:54;;;;;;;23.10;19.63;;;12.00;97.00;;;;;;4974115;28;20450;-37
2021/04/30 10:35:45;;;;;;;23.48;19.25;;;12.00;97.10;;;;;;4970574;28;20023;-40
2021/04/30 10:38:19;;;;;;;21.77;18.02;;;12.00;97.10;;;;;;4977367;28;20023;-38
2021/04/30 10:40:58;;;;;;;24.30;20.40;;;12.00;97.10;;;;;;4968608;28;20049;-37
2021/04/30 10:43:24;;;;;;;24.00;19.23;;;12.00;97.20;;;;;;4976557;28;20583;-39
2021/04/30 10:46:03;;;;;;;23.17;19.20;;;12.00;97.20;;;;;;4969017;28;20054;-39
2021/04/30 10:48:31;;;;;;;23.98;19.60;;;11.90;97.20;;;;;;4974373;28;20501;-36
2021/04/30 10:51:14;;;;;;;28.58;22.30;;;11.90;97.20;;;;;;4968159;28;20038;-38
2021/04/30 10:53:40;;;;;;;;;;;11.90;97.30;;;;;;4975739;28;20022;-39
2021/04/30 10:56:24;;;;;;;26.88;20.48;;;11.80;97.30;;;;;;4969427;28;19906;-39
2021/04/30 10:58:50;;;;;;;25.55;21.35;;;11.80;97.30;;;;;;4976737;28;20041;-36
2021/04/30 11:01:34;;;;;;;27.17;22.67;;;11.70;97.40;;;;;;4974327;28;20052;-38
2021/04/30 11:04:13;;;;;;;32.55;24.58;;;11.60;97.60;;;;;;4977256;28;20046;-39
2021/04/30 11:06:45;;;;;;;31.52;24.85;;;11.50;97.70;;;;;;4964953;28;20023;-37
2021/04/30 11:09:12;;;;;;;24.98;21.92;;;11.50;97.70;;;;;;4974438;28;20034;-39
2021/04/30 11:11:46;;;;;;;27.48;22.02;;;11.40;97.80;;;;;;4967724;28;20549;-38
2021/04/30 11:14:17;;;;;;;23.83;19.95;;;11.30;98.00;;;;;;4973727;28;20050;-38
2021/04/30 11:16:43;;;;;;;28.23;23.15;;;11.20;98.30;;;;;;4968004;28;20027;-36
2021/04/30 11:19:09;;;;;;;30.25;23.58;;;11.10;98.40;;;;;;4971587;28;20026;-38
2021/04/30 11:21:52;;;;;;;25.75;21.80;;;11.20;98.50;;;;;;4970879;28;20153;-37
2021/04/30 11:24:26;;;;;;;30.92;23.73;;;11.30;98.50;;;;;;4971527;28;20615;-36
2021/04/30 11:27:21;;;;;;;26.42;22.75;;;11.50;98.40;;;;;;4969775;28;20038;-38
2021/04/30 11:29:47;;;;;;;25.98;20.52;;;11.70;98.30;;;;;;4973564;28;20105;-37
2021/04/30 11:32:24;;;;;;;23.45;19.77;;;11.90;98.10;;;;;;4968362;28;20034;-36
2021/04/30 11:34:58;;;;;;;24.98;19.75;;;12.10;97.90;;;;;;4972022;28;20109;-38
2021/04/30 11:37:26;;;;;;;25.67;20.33;;;12.20;97.70;;;;;;4968352;28;20558;-36
2021/04/30 11:39:53;;;;;;;22.30;19.90;;;12.30;97.60;;;;;;4971600;28;20023;-38
2021/04/30 11:42:19;;;;;;;22.85;19.77;;;12.50;97.50;;;;;;4970570;28;20081;-39
2021/04/30 11:44:45;;;;;;;21.17;18.80;;;12.60;97.40;;;;;;4968146;28;20560;-40
2021/04/30 11:47:14;;;;;;;19.70;17.60;;;12.70;97.30;;;;;;4976937;28;20042;-39
2021/04/30 11:49:41;;;;;;;21.65;19.38;;;12.80;97.10;;;;;;4969170;28;20471;-38
2021/04/30 11:52:11;;;;;;;20.67;17.60;;;12.80;96.90;;;;;;4981818;28;20393;-37
2021/04/30 11:54:39;;;;;;;24.73;19.83;;;12.90;96.90;;;;;;4971594;28;20154;-38
2021/04/30 11:57:12;;;;;;;22.67;19.30;;;12.90;97.00;;;;;;4977407;28;20061;-40
2021/04/30 11:59:41;;;;;;;23.77;20.02;;;13.00;97.00;;;;;;4975654;28;20049;-38
2021/04/30 12:02:10;;;;;;;24.70;20.65;;;13.10;96.90;;;;;;4975822;28;20054;-37
2021/04/30 12:04:50;;;;;;;26.65;20.85;;;13.20;96.80;;;;;;4971144;28;20057;-41
2021/04/30 12:07:17;;;;;;;21.23;18.88;;;13.40;96.40;;;;;;4982617;28;20611;-37
2021/04/30 12:09:44;;;;;;;19.50;17.48;;;13.50;96.40;;;;;;4983552;28;20030;-38
2021/04/30 12:12:18;;;;;;;20.35;16.77;;;13.70;96.10;;;;;;4974747;28;20035;-38
2021/04/30 12:14:44;;;;;;;18.38;16.38;;;13.80;96.00;;;;;;4964676;28;20114;-39
2021/04/30 12:17:43;;;;;;;19.02;16.27;;;13.90;95.90;;;;;;4971637;28;20089;-39
2021/04/30 12:20:14;;;;;;;20.17;16.80;;;14.00;95.90;;;;;;4933518;28;20049;-36
2021/04/30 12:22:52;;;;;;;19.75;16.88;;;14.10;95.70;;;;;;4976110;28;20585;-40
2021/04/30 12:25:32;;;;;;;20.02;15.95;;;14.10;95.50;;;;;;4981465;28;20458;-38
2021/04/30 12:28:16;;;;;;;16.77;14.98;;;14.20;95.40;;;;;;4976244;28;20034;-36
2021/04/30 12:30:44;;;;;;;17.02;14.20;;;14.30;95.30;;;;;;4982078;28;20030;-38
2021/04/30 12:33:23;;;;;;;15.75;14.15;;;14.30;95.20;;;;;;4976167;28;20034;-38
2021/04/30 12:35:49;;;;;;;16.52;13.15;;;14.40;95.20;;;;;;4978638;28;20042;-38
2021/04/30 12:38:15;;;;;;;13.48;11.40;;;14.50;95.20;;;;;;4979546;28;20069;-38
2021/04/30 12:40:40;;;;;;;14.73;12.65;;;14.50;95.00;;;;;;4982650;28;20109;-38
2021/04/30 12:43:06;;;;;;;14.43;12.07;;;14.50;94.90;;;;;;4971736;28;20022;-38
2021/04/30 12:45:31;;;;;;;14.02;12.40;;;14.50;94.90;;;;;;4983846;28;20037;-38
2021/04/30 12:47:57;;;;;;;13.10;11.70;;;14.60;94.70;;;;;;4970527;28;20038;-38
2021/04/30 12:50:27;;;;;;;14.50;11.43;;;14.60;94.50;;;;;;4984046;28;20034;-39
2021/04/30 12:52:55;;;;;;;13.60;11.13;;;14.60;94.60;;;;;;4973584;28;20470;-38
2021/04/30 12:55:36;;;;;;;11.98;10.68;;;14.70;94.30;;;;;;4984724;28;20129;-40
2021/04/30 12:58:12;;;;;;;12.05;9.98;;;14.70;94.10;;;;;;4973517;28;20046;-37
2021/04/30 13:00:55;;;;;;;14.63;11.20;;;14.80;94.00;;;;;;4973395;28;20026;-38
2021/04/30 13:03:21;;;;;;;13.20;10.85;;;14.90;93.60;;;;;;4977273;28;20137;-38